sensor_id;sensor_type;location;lat;lon;timestamp;temperature;humidity
33023;DHT22;19390;51.460;5.710;2022-08-19T00:01:37;16.00;99.90
33023;DHT22;19390;51.460;5.710;2022-08-19T00:04:06;16.00;99.90
33023;DHT22;19390;51.460;5.710;2022-08-19T00:06:33;15.90;99.90
33023;DHT22;19390;51.460;5.710;2022-08-19T00:09:00;15.90;99.90
33023;DHT22;19390;51.460;5.710;2022-08-19T00:11:27;15.90;99.90
33023;DHT22;19390;51.460;5.710;2022-08-19T00:13:54;16.00;99.90
33023;DHT22;19390;51.460;5.710;2022-08-19T00:16:21;15.80;99.90
33023;DHT22;19390;51.460;5.710;2022-08-19T00:18:48;15.70;99.90
33023;DHT22;19390;51.460;5.710;2022-08-19T00:21:15;15.60;99.90
33023;DHT22;19390;51.460;5.710;2022-08-19T00:23:42;15.60;99.90
33023;DHT22;19390;51.460;5.710;2022-08-19T00:26:09;15.50;99.90
33023;DHT22;19390;51.460;5.710;2022-08-19T00:28:35;15.60;99.90
33023;DHT22;19390;51.460;5.710;2022-08-19T00:31:06;15.60;99.90
33023;DHT22;19390;51.460;5.710;2022-08-19T00:33:32;15.60;99.90
33023;DHT22;19390;51.460;5.710;2022-08-19T00:35:59;15.60;99.90
33023;DHT22;19390;51.460;5.710;2022-08-19T00:38:25;15.50;99.90
33023;DHT22;19390;51.460;5.710;2022-08-19T00:40:51;15.50;99.90
33023;DHT22;19390;51.460;5.710;2022-08-19T00:43:22;15.60;99.90
33023;DHT22;19390;51.460;5.710;2022-08-19T00:45:49;15.50;99.90
33023;DHT22;19390;51.460;5.710;2022-08-19T00:48:16;15.50;99.90
33023;DHT22;19390;51.460;5.710;2022-08-19T00:50:43;15.50;99.90
33023;DHT22;19390;51.460;5.710;2022-08-19T00:53:11;15.50;99.90
33023;DHT22;19390;51.460;5.710;2022-08-19T00:55:37;15.40;99.90
33023;DHT22;19390;51.460;5.710;2022-08-19T00:58:07;15.50;99.90
33023;DHT22;19390;51.460;5.710;2022-08-19T01:00:35;15.60;99.90
33023;DHT22;19390;51.460;5.710;2022-08-19T01:03:05;15.50;99.90
33023;DHT22;19390;51.460;5.710;2022-08-19T01:05:31;15.40;99.90
33023;DHT22;19390;51.460;5.710;2022-08-19T01:07:59;15.30;99.90
33023;DHT22;19390;51.460;5.710;2022-08-19T01:10:30;15.40;99.90
33023;DHT22;19390;51.460;5.710;2022-08-19T01:12:58;15.40;99.90
33023;DHT22;19390;51.460;5.710;2022-08-19T01:15:29;15.40;99.90
33023;DHT22;19390;51.460;5.710;2022-08-19T01:17:55;15.40;99.90
33023;DHT22;19390;51.460;5.710;2022-08-19T01:20:23;15.30;99.90
33023;DHT22;19390;51.460;5.710;2022-08-19T01:22:54;15.30;99.90
33023;DHT22;19390;51.460;5.710;2022-08-19T01:25:26;15.30;99.90
33023;DHT22;19390;51.460;5.710;2022-08-19T01:27:54;15.30;99.90
33023;DHT22;19390;51.460;5.710;2022-08-19T01:30:31;15.20;99.90
33023;DHT22;19390;51.460;5.710;2022-08-19T01:32:57;15.20;99.90
33023;DHT22;19390;51.460;5.710;2022-08-19T01:35:29;15.10;99.90
33023;DHT22;19390;51.460;5.710;2022-08-19T01:38:05;15.00;99.90
33023;DHT22;19390;51.460;5.710;2022-08-19T01:40:34;14.90;99.90
33023;DHT22;19390;51.460;5.710;2022-08-19T01:43:01;14.90;99.90
33023;DHT22;19390;51.460;5.710;2022-08-19T01:45:32;14.90;99.90
33023;DHT22;19390;51.460;5.710;2022-08-19T01:47:59;14.80;99.90
33023;DHT22;19390;51.460;5.710;2022-08-19T01:50:25;14.80;99.90
33023;DHT22;19390;51.460;5.710;2022-08-19T01:52:51;14.80;99.90
33023;DHT22;19390;51.460;5.710;2022-08-19T01:55:19;14.80;99.90
33023;DHT22;19390;51.460;5.710;2022-08-19T01:57:50;14.70;99.90
33023;DHT22;19390;51.460;5.710;2022-08-19T02:00:19;14.70;99.90
33023;DHT22;19390;51.460;5.710;2022-08-19T02:02:44;14.60;99.90
33023;DHT22;19390;51.460;5.710;2022-08-19T02:05:11;14.60;99.90
33023;DHT22;19390;51.460;5.710;2022-08-19T02:07:38;14.60;99.90
33023;DHT22;19390;51.460;5.710;2022-08-19T02:10:12;14.60;99.90
33023;DHT22;19390;51.460;5.710;2022-08-19T02:12:38;14.60;99.90
33023;DHT22;19390;51.460;5.710;2022-08-19T02:15:04;14.60;99.90
33023;DHT22;19390;51.460;5.710;2022-08-19T02:17:31;14.60;99.90
33023;DHT22;19390;51.460;5.710;2022-08-19T02:19:57;14.60;99.90
33023;DHT22;19390;51.460;5.710;2022-08-19T02:22:23;14.60;99.90
33023;DHT22;19390;51.460;5.710;2022-08-19T02:24:51;14.50;99.90
33023;DHT22;19390;51.460;5.710;2022-08-19T02:27:17;14.50;99.90
33023;DHT22;19390;51.460;5.710;2022-08-19T02:29:43;14.50;99.90
33023;DHT22;19390;51.460;5.710;2022-08-19T02:32:08;14.50;99.90
33023;DHT22;19390;51.460;5.710;2022-08-19T02:34:34;14.50;99.90
33023;DHT22;19390;51.460;5.710;2022-08-19T02:37:00;14.40;99.90
33023;DHT22;19390;51.460;5.710;2022-08-19T02:39:25;14.40;99.90
33023;DHT22;19390;51.460;5.710;2022-08-19T02:41:51;14.40;99.90
33023;DHT22;19390;51.460;5.710;2022-08-19T02:44:17;14.40;99.90
33023;DHT22;19390;51.460;5.710;2022-08-19T02:46:45;14.20;99.90
33023;DHT22;19390;51.460;5.710;2022-08-19T02:49:12;14.30;99.90
33023;DHT22;19390;51.460;5.710;2022-08-19T02:51:43;14.20;99.90
33023;DHT22;19390;51.460;5.710;2022-08-19T02:54:11;14.20;99.90
33023;DHT22;19390;51.460;5.710;2022-08-19T02:56:39;14.20;99.90
33023;DHT22;19390;51.460;5.710;2022-08-19T02:59:05;14.30;99.90
33023;DHT22;19390;51.460;5.710;2022-08-19T03:01:34;14.20;99.90
33023;DHT22;19390;51.460;5.710;2022-08-19T03:04:02;14.10;99.90
33023;DHT22;19390;51.460;5.710;2022-08-19T03:06:28;14.20;99.90
33023;DHT22;19390;51.460;5.710;2022-08-19T03:08:54;14.30;99.90
33023;DHT22;19390;51.460;5.710;2022-08-19T03:11:31;14.20;99.90
33023;DHT22;19390;51.460;5.710;2022-08-19T03:13:58;14.20;99.90
33023;DHT22;19390;51.460;5.710;2022-08-19T03:16:29;14.40;99.90
33023;DHT22;19390;51.460;5.710;2022-08-19T03:18:57;14.30;99.90
33023;DHT22;19390;51.460;5.710;2022-08-19T03:21:26;14.40;99.90
33023;DHT22;19390;51.460;5.710;2022-08-19T03:23:57;14.50;99.90
33023;DHT22;19390;51.460;5.710;2022-08-19T03:26:23;14.20;99.90
33023;DHT22;19390;51.460;5.710;2022-08-19T03:28:49;14.10;99.90
33023;DHT22;19390;51.460;5.710;2022-08-19T03:31:18;14.20;99.90
33023;DHT22;19390;51.460;5.710;2022-08-19T03:33:44;14.10;99.90
33023;DHT22;19390;51.460;5.710;2022-08-19T03:36:20;14.10;99.90
33023;DHT22;19390;51.460;5.710;2022-08-19T03:38:54;14.00;99.90
33023;DHT22;19390;51.460;5.710;2022-08-19T03:41:25;14.00;99.90
33023;DHT22;19390;51.460;5.710;2022-08-19T03:43:53;13.90;99.90
33023;DHT22;19390;51.460;5.710;2022-08-19T03:46:25;14.00;99.90
33023;DHT22;19390;51.460;5.710;2022-08-19T03:48:53;13.90;99.90
33023;DHT22;19390;51.460;5.710;2022-08-19T03:51:27;13.90;99.90
33023;DHT22;19390;51.460;5.710;2022-08-19T03:53:54;14.00;99.90
33023;DHT22;19390;51.460;5.710;2022-08-19T03:56:20;14.00;99.90
33023;DHT22;19390;51.460;5.710;2022-08-19T03:58:46;14.00;99.90
33023;DHT22;19390;51.460;5.710;2022-08-19T04:01:16;13.90;99.90
33023;DHT22;19390;51.460;5.710;2022-08-19T04:03:43;14.00;99.90
33023;DHT22;19390;51.460;5.710;2022-08-19T04:06:17;13.90;99.90
33023;DHT22;19390;51.460;5.710;2022-08-19T04:08:45;13.80;99.90
33023;DHT22;19390;51.460;5.710;2022-08-19T04:11:15;13.80;99.90
33023;DHT22;19390;51.460;5.710;2022-08-19T04:13:41;13.70;99.90
33023;DHT22;19390;51.460;5.710;2022-08-19T04:16:08;13.70;99.90
33023;DHT22;19390;51.460;5.710;2022-08-19T04:18:35;13.80;99.90
33023;DHT22;19390;51.460;5.710;2022-08-19T04:21:01;13.80;99.90
33023;DHT22;19390;51.460;5.710;2022-08-19T04:23:27;13.80;99.90
33023;DHT22;19390;51.460;5.710;2022-08-19T04:25:56;13.80;99.90
33023;DHT22;19390;51.460;5.710;2022-08-19T04:28:22;13.80;99.90
33023;DHT22;19390;51.460;5.710;2022-08-19T04:30:50;13.80;99.90
33023;DHT22;19390;51.460;5.710;2022-08-19T04:33:20;13.90;99.90
33023;DHT22;19390;51.460;5.710;2022-08-19T04:35:49;13.80;99.90
33023;DHT22;19390;51.460;5.710;2022-08-19T04:38:16;13.80;99.90
33023;DHT22;19390;51.460;5.710;2022-08-19T04:40:44;13.80;99.90
33023;DHT22;19390;51.460;5.710;2022-08-19T04:43:29;13.80;99.90
33023;DHT22;19390;51.460;5.710;2022-08-19T04:45:55;13.80;99.90
33023;DHT22;19390;51.460;5.710;2022-08-19T04:48:21;13.90;99.90
33023;DHT22;19390;51.460;5.710;2022-08-19T04:50:56;13.70;99.90
33023;DHT22;19390;51.460;5.710;2022-08-19T04:53:29;13.90;99.90
33023;DHT22;19390;51.460;5.710;2022-08-19T04:55:59;14.10;99.90
33023;DHT22;19390;51.460;5.710;2022-08-19T04:58:28;14.10;99.90
33023;DHT22;19390;51.460;5.710;2022-08-19T05:00:54;14.10;99.90
33023;DHT22;19390;51.460;5.710;2022-08-19T05:03:20;14.00;99.90
33023;DHT22;19390;51.460;5.710;2022-08-19T05:05:47;14.00;99.90
33023;DHT22;19390;51.460;5.710;2022-08-19T05:08:18;14.00;99.90
33023;DHT22;19390;51.460;5.710;2022-08-19T05:10:49;14.00;99.90
33023;DHT22;19390;51.460;5.710;2022-08-19T05:13:18;14.00;99.90
33023;DHT22;19390;51.460;5.710;2022-08-19T05:15:44;14.10;99.90
33023;DHT22;19390;51.460;5.710;2022-08-19T05:18:10;14.30;99.90
33023;DHT22;19390;51.460;5.710;2022-08-19T05:20:54;14.40;99.90
33023;DHT22;19390;51.460;5.710;2022-08-19T05:23:38;14.60;99.90
33023;DHT22;19390;51.460;5.710;2022-08-19T05:26:04;14.70;99.90
33023;DHT22;19390;51.460;5.710;2022-08-19T05:28:30;15.10;99.90
33023;DHT22;19390;51.460;5.710;2022-08-19T05:30:56;15.60;99.90
33023;DHT22;19390;51.460;5.710;2022-08-19T05:33:22;16.40;99.90
33023;DHT22;19390;51.460;5.710;2022-08-19T05:35:49;16.90;99.90
33023;DHT22;19390;51.460;5.710;2022-08-19T05:38:16;17.20;99.90
33023;DHT22;19390;51.460;5.710;2022-08-19T05:40:42;17.30;99.90
33023;DHT22;19390;51.460;5.710;2022-08-19T05:43:12;17.70;99.90
33023;DHT22;19390;51.460;5.710;2022-08-19T05:45:41;18.60;99.90
33023;DHT22;19390;51.460;5.710;2022-08-19T05:48:08;19.20;99.90
33023;DHT22;19390;51.460;5.710;2022-08-19T05:50:37;19.40;99.90
33023;DHT22;19390;51.460;5.710;2022-08-19T05:53:02;18.80;99.90
33023;DHT22;19390;51.460;5.710;2022-08-19T05:55:28;18.90;99.90
33023;DHT22;19390;51.460;5.710;2022-08-19T05:57:54;19.00;99.90
33023;DHT22;19390;51.460;5.710;2022-08-19T06:00:19;19.30;99.90
33023;DHT22;19390;51.460;5.710;2022-08-19T06:02:45;19.50;99.90
33023;DHT22;19390;51.460;5.710;2022-08-19T06:05:11;19.30;99.90
33023;DHT22;19390;51.460;5.710;2022-08-19T06:07:40;19.50;99.90
33023;DHT22;19390;51.460;5.710;2022-08-19T06:10:08;19.90;99.90
33023;DHT22;19390;51.460;5.710;2022-08-19T06:12:34;20.00;99.90
33023;DHT22;19390;51.460;5.710;2022-08-19T06:15:04;20.30;99.90
33023;DHT22;19390;51.460;5.710;2022-08-19T06:17:30;21.00;99.90
33023;DHT22;19390;51.460;5.710;2022-08-19T06:19:56;21.50;99.90
33023;DHT22;19390;51.460;5.710;2022-08-19T06:22:22;20.90;99.90
33023;DHT22;19390;51.460;5.710;2022-08-19T06:24:48;21.50;99.90
33023;DHT22;19390;51.460;5.710;2022-08-19T06:27:18;22.10;99.90
33023;DHT22;19390;51.460;5.710;2022-08-19T06:29:43;22.10;99.90
33023;DHT22;19390;51.460;5.710;2022-08-19T06:32:09;22.30;99.90
33023;DHT22;19390;51.460;5.710;2022-08-19T06:34:36;21.50;99.90
33023;DHT22;19390;51.460;5.710;2022-08-19T06:37:02;21.50;99.90
33023;DHT22;19390;51.460;5.710;2022-08-19T06:39:31;22.90;99.90
33023;DHT22;19390;51.460;5.710;2022-08-19T06:42:00;22.40;99.90
33023;DHT22;19390;51.460;5.710;2022-08-19T06:44:29;21.40;99.90
33023;DHT22;19390;51.460;5.710;2022-08-19T06:46:56;22.20;99.90
33023;DHT22;19390;51.460;5.710;2022-08-19T06:49:22;23.00;99.90
33023;DHT22;19390;51.460;5.710;2022-08-19T06:51:49;23.60;99.90
33023;DHT22;19390;51.460;5.710;2022-08-19T06:54:16;24.40;99.90
33023;DHT22;19390;51.460;5.710;2022-08-19T06:56:44;25.40;99.90
33023;DHT22;19390;51.460;5.710;2022-08-19T06:59:14;25.00;99.90
33023;DHT22;19390;51.460;5.710;2022-08-19T07:01:43;25.40;99.90
33023;DHT22;19390;51.460;5.710;2022-08-19T07:04:11;24.90;99.90
33023;DHT22;19390;51.460;5.710;2022-08-19T07:06:37;25.80;99.90
33023;DHT22;19390;51.460;5.710;2022-08-19T07:09:05;25.60;99.90
33023;DHT22;19390;51.460;5.710;2022-08-19T07:11:31;27.00;99.90
33023;DHT22;19390;51.460;5.710;2022-08-19T07:13:58;27.10;99.90
33023;DHT22;19390;51.460;5.710;2022-08-19T07:16:24;26.40;99.90
33023;DHT22;19390;51.460;5.710;2022-08-19T07:18:51;28.30;99.90
33023;DHT22;19390;51.460;5.710;2022-08-19T07:21:25;29.50;99.90
33023;DHT22;19390;51.460;5.710;2022-08-19T07:23:55;28.90;99.90
33023;DHT22;19390;51.460;5.710;2022-08-19T07:26:30;28.00;99.90
33023;DHT22;19390;51.460;5.710;2022-08-19T07:28:57;27.40;99.90
33023;DHT22;19390;51.460;5.710;2022-08-19T07:31:26;27.30;99.90
33023;DHT22;19390;51.460;5.710;2022-08-19T07:33:53;27.80;99.90
33023;DHT22;19390;51.460;5.710;2022-08-19T07:36:23;29.00;99.90
33023;DHT22;19390;51.460;5.710;2022-08-19T07:38:50;29.10;99.90
33023;DHT22;19390;51.460;5.710;2022-08-19T07:41:19;29.70;99.90
33023;DHT22;19390;51.460;5.710;2022-08-19T07:43:45;29.30;99.90
33023;DHT22;19390;51.460;5.710;2022-08-19T07:46:12;28.50;99.90
33023;DHT22;19390;51.460;5.710;2022-08-19T07:48:40;30.30;99.90
33023;DHT22;19390;51.460;5.710;2022-08-19T07:51:07;29.10;99.90
33023;DHT22;19390;51.460;5.710;2022-08-19T07:53:34;28.90;99.90
33023;DHT22;19390;51.460;5.710;2022-08-19T07:56:01;29.00;99.90
33023;DHT22;19390;51.460;5.710;2022-08-19T07:58:32;29.30;99.90
33023;DHT22;19390;51.460;5.710;2022-08-19T08:00:59;29.80;99.90
33023;DHT22;19390;51.460;5.710;2022-08-19T08:03:25;29.50;99.90
33023;DHT22;19390;51.460;5.710;2022-08-19T08:06:13;28.70;99.90
33023;DHT22;19390;51.460;5.710;2022-08-19T08:08:57;30.00;99.90
33023;DHT22;19390;51.460;5.710;2022-08-19T08:11:50;27.80;99.90
33023;DHT22;19390;51.460;5.710;2022-08-19T08:14:26;29.50;99.90
33023;DHT22;19390;51.460;5.710;2022-08-19T08:16:52;30.30;99.90
33023;DHT22;19390;51.460;5.710;2022-08-19T08:19:20;30.70;99.90
33023;DHT22;19390;51.460;5.710;2022-08-19T08:21:47;28.70;99.90
33023;DHT22;19390;51.460;5.710;2022-08-19T08:24:13;30.10;99.90
33023;DHT22;19390;51.460;5.710;2022-08-19T08:26:39;29.70;99.90
33023;DHT22;19390;51.460;5.710;2022-08-19T08:29:06;30.60;99.90
33023;DHT22;19390;51.460;5.710;2022-08-19T08:31:34;29.80;99.90
33023;DHT22;19390;51.460;5.710;2022-08-19T08:34:00;30.40;99.90
33023;DHT22;19390;51.460;5.710;2022-08-19T08:36:26;30.20;99.90
33023;DHT22;19390;51.460;5.710;2022-08-19T08:38:52;31.00;99.90
33023;DHT22;19390;51.460;5.710;2022-08-19T08:44:48;32.50;99.90
33023;DHT22;19390;51.460;5.710;2022-08-19T08:47:19;31.80;99.90
33023;DHT22;19390;51.460;5.710;2022-08-19T08:49:56;29.70;99.90
33023;DHT22;19390;51.460;5.710;2022-08-19T08:52:36;30.00;99.90
33023;DHT22;19390;51.460;5.710;2022-08-19T08:55:12;31.30;99.90
33023;DHT22;19390;51.460;5.710;2022-08-19T09:00:36;28.90;99.90
33023;DHT22;19390;51.460;5.710;2022-08-19T09:03:06;31.20;99.90
33023;DHT22;19390;51.460;5.710;2022-08-19T09:10:55;31.10;99.90
33023;DHT22;19390;51.460;5.710;2022-08-19T09:13:33;30.80;99.90
33023;DHT22;19390;51.460;5.710;2022-08-19T09:18:45;30.80;99.90
33023;DHT22;19390;51.460;5.710;2022-08-19T09:21:13;31.00;99.90
33023;DHT22;19390;51.460;5.710;2022-08-19T09:23:39;30.30;99.90
33023;DHT22;19390;51.460;5.710;2022-08-19T09:26:11;29.80;99.90
33023;DHT22;19390;51.460;5.710;2022-08-19T09:28:39;28.70;99.90
33023;DHT22;19390;51.460;5.710;2022-08-19T09:31:16;29.80;99.90
33023;DHT22;19390;51.460;5.710;2022-08-19T09:33:42;30.60;99.90
33023;DHT22;19390;51.460;5.710;2022-08-19T09:36:13;29.60;99.90
33023;DHT22;19390;51.460;5.710;2022-08-19T09:38:39;30.20;99.90
33023;DHT22;19390;51.460;5.710;2022-08-19T09:41:09;32.50;99.90
33023;DHT22;19390;51.460;5.710;2022-08-19T09:43:37;33.50;99.90
33023;DHT22;19390;51.460;5.710;2022-08-19T09:46:04;30.90;99.90
33023;DHT22;19390;51.460;5.710;2022-08-19T09:48:35;30.80;99.90
33023;DHT22;19390;51.460;5.710;2022-08-19T09:51:10;33.30;99.90
33023;DHT22;19390;51.460;5.710;2022-08-19T09:53:37;33.30;99.90
33023;DHT22;19390;51.460;5.710;2022-08-19T09:56:04;33.40;99.90
33023;DHT22;19390;51.460;5.710;2022-08-19T09:58:31;32.30;99.90
33023;DHT22;19390;51.460;5.710;2022-08-19T10:00:58;32.70;99.90
33023;DHT22;19390;51.460;5.710;2022-08-19T10:03:25;32.10;99.90
33023;DHT22;19390;51.460;5.710;2022-08-19T10:05:52;31.50;99.90
33023;DHT22;19390;51.460;5.710;2022-08-19T10:08:29;31.80;99.90
33023;DHT22;19390;51.460;5.710;2022-08-19T10:10:55;31.50;99.90
33023;DHT22;19390;51.460;5.710;2022-08-19T10:13:25;30.00;99.90
33023;DHT22;19390;51.460;5.710;2022-08-19T10:15:56;28.90;99.90
33023;DHT22;19390;51.460;5.710;2022-08-19T10:18:23;27.40;99.90
33023;DHT22;19390;51.460;5.710;2022-08-19T10:20:50;27.50;99.90
33023;DHT22;19390;51.460;5.710;2022-08-19T10:23:17;27.00;99.90
33023;DHT22;19390;51.460;5.710;2022-08-19T10:25:43;27.90;99.90
33023;DHT22;19390;51.460;5.710;2022-08-19T10:28:08;29.20;99.90
33023;DHT22;19390;51.460;5.710;2022-08-19T10:30:37;28.70;99.90
33023;DHT22;19390;51.460;5.710;2022-08-19T10:33:02;28.00;99.90
33023;DHT22;19390;51.460;5.710;2022-08-19T10:35:28;28.10;99.90
33023;DHT22;19390;51.460;5.710;2022-08-19T10:37:55;29.10;99.90
33023;DHT22;19390;51.460;5.710;2022-08-19T10:40:25;27.20;99.90
33023;DHT22;19390;51.460;5.710;2022-08-19T10:42:52;27.20;99.90
33023;DHT22;19390;51.460;5.710;2022-08-19T10:45:18;26.20;99.90
33023;DHT22;19390;51.460;5.710;2022-08-19T10:47:44;28.00;99.90
33023;DHT22;19390;51.460;5.710;2022-08-19T10:50:10;31.00;99.90
33023;DHT22;19390;51.460;5.710;2022-08-19T10:52:54;30.20;99.90
33023;DHT22;19390;51.460;5.710;2022-08-19T10:55:22;27.10;99.90
33023;DHT22;19390;51.460;5.710;2022-08-19T10:58:14;26.60;92.80
33023;DHT22;19390;51.460;5.710;2022-08-19T11:00:40;27.00;1.00
33023;DHT22;19390;51.460;5.710;2022-08-19T11:03:07;26.80;99.90
33023;DHT22;19390;51.460;5.710;2022-08-19T11:05:33;28.30;99.90
33023;DHT22;19390;51.460;5.710;2022-08-19T11:07:59;29.00;99.90
33023;DHT22;19390;51.460;5.710;2022-08-19T11:10:25;30.30;99.90
33023;DHT22;19390;51.460;5.710;2022-08-19T11:12:50;30.00;99.90
33023;DHT22;19390;51.460;5.710;2022-08-19T11:15:20;28.10;99.90
33023;DHT22;19390;51.460;5.710;2022-08-19T11:17:46;27.60;99.90
33023;DHT22;19390;51.460;5.710;2022-08-19T11:20:14;26.60;99.90
33023;DHT22;19390;51.460;5.710;2022-08-19T11:22:40;26.50;1.00
33023;DHT22;19390;51.460;5.710;2022-08-19T11:25:08;30.00;99.90
33023;DHT22;19390;51.460;5.710;2022-08-19T11:27:38;29.10;99.90
33023;DHT22;19390;51.460;5.710;2022-08-19T11:30:05;28.70;99.90
33023;DHT22;19390;51.460;5.710;2022-08-19T11:32:32;27.00;99.90
33023;DHT22;19390;51.460;5.710;2022-08-19T11:34:59;27.10;99.90
33023;DHT22;19390;51.460;5.710;2022-08-19T11:37:24;28.00;99.90
33023;DHT22;19390;51.460;5.710;2022-08-19T11:39:50;27.60;99.90
33023;DHT22;19390;51.460;5.710;2022-08-19T11:42:17;26.60;99.90
33023;DHT22;19390;51.460;5.710;2022-08-19T11:45:02;26.80;1.00
33023;DHT22;19390;51.460;5.710;2022-08-19T11:47:29;29.10;99.90
33023;DHT22;19390;51.460;5.710;2022-08-19T11:49:56;27.10;99.90
33023;DHT22;19390;51.460;5.710;2022-08-19T11:52:21;27.10;99.90
33023;DHT22;19390;51.460;5.710;2022-08-19T11:54:47;27.50;99.90
33023;DHT22;19390;51.460;5.710;2022-08-19T11:57:13;28.60;99.90
33023;DHT22;19390;51.460;5.710;2022-08-19T11:59:42;29.90;99.90
33023;DHT22;19390;51.460;5.710;2022-08-19T12:02:08;28.20;99.90
33023;DHT22;19390;51.460;5.710;2022-08-19T12:04:34;29.00;99.90
33023;DHT22;19390;51.460;5.710;2022-08-19T12:07:00;28.60;99.90
33023;DHT22;19390;51.460;5.710;2022-08-19T12:09:27;28.40;99.90
33023;DHT22;19390;51.460;5.710;2022-08-19T12:11:53;28.50;99.90
33023;DHT22;19390;51.460;5.710;2022-08-19T12:14:18;29.20;99.90
33023;DHT22;19390;51.460;5.710;2022-08-19T12:16:45;29.80;99.90
33023;DHT22;19390;51.460;5.710;2022-08-19T12:19:11;30.00;99.90
33023;DHT22;19390;51.460;5.710;2022-08-19T12:21:37;30.40;99.90
33023;DHT22;19390;51.460;5.710;2022-08-19T12:24:04;31.50;99.90
33023;DHT22;19390;51.460;5.710;2022-08-19T12:26:30;31.00;99.90
33023;DHT22;19390;51.460;5.710;2022-08-19T12:28:56;31.10;99.90
33023;DHT22;19390;51.460;5.710;2022-08-19T12:31:25;30.40;99.90
33023;DHT22;19390;51.460;5.710;2022-08-19T12:33:51;29.80;99.90
33023;DHT22;19390;51.460;5.710;2022-08-19T12:36:17;29.70;99.90
33023;DHT22;19390;51.460;5.710;2022-08-19T12:38:43;30.70;99.90
33023;DHT22;19390;51.460;5.710;2022-08-19T12:41:11;31.30;99.90
33023;DHT22;19390;51.460;5.710;2022-08-19T12:43:38;30.10;99.90
33023;DHT22;19390;51.460;5.710;2022-08-19T12:46:06;31.10;99.90
33023;DHT22;19390;51.460;5.710;2022-08-19T12:48:32;31.20;99.90
33023;DHT22;19390;51.460;5.710;2022-08-19T12:50:58;31.20;99.90
33023;DHT22;19390;51.460;5.710;2022-08-19T12:53:24;29.50;99.90
33023;DHT22;19390;51.460;5.710;2022-08-19T12:55:57;29.30;99.90
33023;DHT22;19390;51.460;5.710;2022-08-19T12:58:25;28.70;99.90
33023;DHT22;19390;51.460;5.710;2022-08-19T13:00:51;28.30;99.90
33023;DHT22;19390;51.460;5.710;2022-08-19T13:03:17;27.60;99.90
33023;DHT22;19390;51.460;5.710;2022-08-19T13:05:42;27.30;99.90
33023;DHT22;19390;51.460;5.710;2022-08-19T13:08:08;27.70;99.90
33023;DHT22;19390;51.460;5.710;2022-08-19T13:10:35;28.00;99.90
33023;DHT22;19390;51.460;5.710;2022-08-19T13:13:06;26.70;1.00
33023;DHT22;19390;51.460;5.710;2022-08-19T13:15:38;26.60;1.00
33023;DHT22;19390;51.460;5.710;2022-08-19T13:18:06;27.30;99.90
33023;DHT22;19390;51.460;5.710;2022-08-19T13:20:32;29.30;99.90
33023;DHT22;19390;51.460;5.710;2022-08-19T13:22:57;30.50;99.90
33023;DHT22;19390;51.460;5.710;2022-08-19T13:25:24;30.40;99.90
33023;DHT22;19390;51.460;5.710;2022-08-19T13:27:50;28.70;99.90
33023;DHT22;19390;51.460;5.710;2022-08-19T13:30:18;28.00;99.90
33023;DHT22;19390;51.460;5.710;2022-08-19T13:33:04;28.10;99.90
33023;DHT22;19390;51.460;5.710;2022-08-19T13:35:37;29.00;99.90
33023;DHT22;19390;51.460;5.710;2022-08-19T13:38:03;28.80;99.90
33023;DHT22;19390;51.460;5.710;2022-08-19T13:40:31;27.30;1.00
33023;DHT22;19390;51.460;5.710;2022-08-19T13:42:59;28.00;1.00
33023;DHT22;19390;51.460;5.710;2022-08-19T13:45:27;28.30;99.90
33023;DHT22;19390;51.460;5.710;2022-08-19T13:47:55;27.30;1.00
33023;DHT22;19390;51.460;5.710;2022-08-19T13:50:24;27.80;1.00
33023;DHT22;19390;51.460;5.710;2022-08-19T13:52:54;28.00;99.90
33023;DHT22;19390;51.460;5.710;2022-08-19T13:55:21;29.90;99.90
33023;DHT22;19390;51.460;5.710;2022-08-19T13:58:00;29.40;99.90
33023;DHT22;19390;51.460;5.710;2022-08-19T14:00:32;27.80;99.90
33023;DHT22;19390;51.460;5.710;2022-08-19T14:02:58;27.50;99.90
33023;DHT22;19390;51.460;5.710;2022-08-19T14:05:26;28.60;99.90
33023;DHT22;19390;51.460;5.710;2022-08-19T14:07:52;29.20;99.90
33023;DHT22;19390;51.460;5.710;2022-08-19T14:10:18;28.90;99.90
33023;DHT22;19390;51.460;5.710;2022-08-19T14:12:44;29.10;99.90
33023;DHT22;19390;51.460;5.710;2022-08-19T14:15:11;28.30;1.00
33023;DHT22;19390;51.460;5.710;2022-08-19T14:17:38;28.40;99.90
33023;DHT22;19390;51.460;5.710;2022-08-19T14:20:06;28.90;99.90
33023;DHT22;19390;51.460;5.710;2022-08-19T14:22:35;28.80;99.90
33023;DHT22;19390;51.460;5.710;2022-08-19T14:25:01;29.10;99.90
33023;DHT22;19390;51.460;5.710;2022-08-19T14:27:27;29.30;99.90
33023;DHT22;19390;51.460;5.710;2022-08-19T14:29:53;29.10;99.90
33023;DHT22;19390;51.460;5.710;2022-08-19T14:32:18;28.40;99.90
33023;DHT22;19390;51.460;5.710;2022-08-19T14:34:44;28.40;99.90
33023;DHT22;19390;51.460;5.710;2022-08-19T14:37:14;28.90;99.90
33023;DHT22;19390;51.460;5.710;2022-08-19T14:39:43;28.20;99.90
33023;DHT22;19390;51.460;5.710;2022-08-19T14:42:11;28.50;99.90
33023;DHT22;19390;51.460;5.710;2022-08-19T14:44:37;28.60;99.90
33023;DHT22;19390;51.460;5.710;2022-08-19T14:47:03;28.50;99.90
33023;DHT22;19390;51.460;5.710;2022-08-19T14:49:29;29.30;99.90
33023;DHT22;19390;51.460;5.710;2022-08-19T14:51:54;29.10;99.90
33023;DHT22;19390;51.460;5.710;2022-08-19T14:54:21;28.10;99.90
33023;DHT22;19390;51.460;5.710;2022-08-19T14:56:47;28.10;99.90
33023;DHT22;19390;51.460;5.710;2022-08-19T14:59:14;28.50;99.90
33023;DHT22;19390;51.460;5.710;2022-08-19T15:01:40;28.50;99.90
33023;DHT22;19390;51.460;5.710;2022-08-19T15:04:05;28.60;99.90
33023;DHT22;19390;51.460;5.710;2022-08-19T15:06:31;27.70;99.90
33023;DHT22;19390;51.460;5.710;2022-08-19T15:08:58;27.30;1.00
33023;DHT22;19390;51.460;5.710;2022-08-19T15:11:25;27.00;99.90
33023;DHT22;19390;51.460;5.710;2022-08-19T15:13:51;27.50;1.00
33023;DHT22;19390;51.460;5.710;2022-08-19T15:16:19;27.50;99.90
33023;DHT22;19390;51.460;5.710;2022-08-19T15:18:46;27.20;91.60
33023;DHT22;19390;51.460;5.710;2022-08-19T15:21:15;27.10;1.00
33023;DHT22;19390;51.460;5.710;2022-08-19T15:23:48;27.40;1.00
33023;DHT22;19390;51.460;5.710;2022-08-19T15:26:15;27.10;1.00
33023;DHT22;19390;51.460;5.710;2022-08-19T15:28:43;26.80;1.00
33023;DHT22;19390;51.460;5.710;2022-08-19T15:31:09;27.10;99.90
33023;DHT22;19390;51.460;5.710;2022-08-19T15:33:36;26.90;1.00
33023;DHT22;19390;51.460;5.710;2022-08-19T15:36:04;27.00;1.00
33023;DHT22;19390;51.460;5.710;2022-08-19T15:38:31;26.80;99.90
33023;DHT22;19390;51.460;5.710;2022-08-19T15:40:59;26.70;1.00
33023;DHT22;19390;51.460;5.710;2022-08-19T15:43:45;26.90;1.00
33023;DHT22;19390;51.460;5.710;2022-08-19T15:46:11;26.90;1.00
33023;DHT22;19390;51.460;5.710;2022-08-19T15:48:37;27.00;99.90
33023;DHT22;19390;51.460;5.710;2022-08-19T15:51:03;26.40;1.00
33023;DHT22;19390;51.460;5.710;2022-08-19T15:53:28;26.20;1.00